Detalii statie TRANSAVIA REDIU [0000197C]

Toti senzorii

Date Temperatura solului [C]Precipitatii [mm]Voltaj baterie [mV]Leaf Wetness [Min]HC Air temperature [C]HC Relative humidity [%]Punctul de roua [C]
medieminmaxsumaultimatimpmedieminmaxmediemediemin
2018-06-20 10:00:00 22.2 21.7 22.8 0 6922 24.68 24.04 25.37 90 22.8 22.4
2018-06-20 11:00:00 23.4 22.9 24 0 7060 25.74 24.67 26.79 85.46 22.9 22.3
2018-06-20 12:00:00 24.6 24.1 25.4 0 7098 25.9 25.6 27.1 79.38 21.9 21.3
2018-06-20 13:00:00 25.7 25.3 26.2 0 7098 27.58 26.45 28.4 77.05 23 22.2
2018-06-20 14:00:00 26.7 26.3 27.1 0 7098 28.75 27.77 29.79 70.77 22.7 22.2
2018-06-20 15:00:00 27.3 26.9 27.6 0 7098 26.58 24.75 28 78.04 22.2 21.1
2018-06-20 16:00:00 27.4 27.1 27.6 0 7098 27.61 26.95 28.18 78.38 23.3 22.7
2018-06-20 17:00:00 27.2 27.1 27.4 0 7098 26.14 25.6 27.73 83.87 23.1 22.5
2018-06-20 18:00:00 26.8 26.7 27 0 7098 25.96 25.75 26.21 83.27 22.7 22.6
2018-06-20 19:00:00 26.6 26.4 26.7 0 7088 25.11 24.72 25.47 86.34 22.5 22.2
2018-06-20 20:00:00 26.3 26.2 26.5 0 6884 22.64 20.67 24.54 97.84 22.2 20.6
2018-06-20 21:00:00 25.8 25.5 26.2 0 6776 18.96 18.03 20.44 100 18.9 18
2018-06-20 22:00:00 25.1 24.9 25.4 0 6766 17.15 16.77 17.77 100 17.1 16.7
2018-06-20 23:00:00 24.4 24.2 24.7 0 6756 16.28 15.91 17.08 100 16.2 15.9
2018-06-21 00:00:00 23.8 23.6 24.2 0 6748 15.81 15.61 15.96 100 15.7 15.6
2018-06-21 01:00:00 23.3 23 23.6 0 6738 15.4 15.2 15.59 100 15.3 15.2
2018-06-21 02:00:00 22.7 22.6 23 0 6728 15.12 14.75 15.35 100 15 14.7
2018-06-21 03:00:00 22.3 22.1 22.7 0 6718 14.78 14.67 14.89 100 14.7 14.6
2018-06-21 04:00:00 21.9 21.7 22.1 0 6708 14.63 14.38 14.99 100 14.5 14.3
2018-06-21 05:00:00 21.5 21.3 21.7 0 6708 14.29 14.18 14.5 100 14.2 14.1
2018-06-21 06:00:00 21.2 21 21.4 0 6766 15.68 14.5 17.29 100 15.6 14.5
2018-06-21 07:00:00 21 20.9 21.3 0 6844 19.92 17.97 21.91 100 19.8 17.9
2018-06-21 08:00:00 21.4 21.1 21.7 0 6904 22.79 21.42 23.84 96.18 22 21.1
2018-06-21 09:00:00 22.1 21.8 22.5 0 6942 24.04 23.62 24.69 89.34 22 21.6
2018-06-21 10:00:00 22.9 22.6 23.4 0 6992 24.44 24.06 25.06 89.6 22.4 22
2018-06-21 11:00:00 23.8 23.4 24.3 0 7088 25.08 24.63 25.81 87.87 22.8 22.1
2018-06-21 12:00:00 24.8 24.2 25.6 0 7098 26.87 25.71 27.79 79.46 22.8 22.4
2018-06-21 13:00:00 26 25.5 26.3 0 7098 26.86 25.96 28.4 79.7 22.8 22.4
2018-06-21 14:00:00 26.6 26.4 26.8 14.8 6864 -17.55 26.55 59.01 14.3 0
2018-06-21 15:00:00 24.8 23.7 26.3 13 6854 -12.48 16.95 75 0
2018-06-21 16:00:00 23.4 23.2 23.8 0.2 6826 16.89 16.63 17.12 100 16.8 16.6
2018-06-21 17:00:00 23 22.9 23.3 0.2 6864 17.3 17.02 17.55 100 17.2 17
2018-06-21 18:00:00 22.8 22.7 23.1 0 6914 17.79 17.52 17.98 100 17.7 17.5
2018-06-21 19:00:00 22.6 22.6 22.9 0 6914 17.77 17.56 17.95 100 17.7 17.5
2018-06-21 20:00:00 22.3 22.2 22.6 0 6816 17.32 16.65 17.76 100 17.2 16.6
2018-06-21 21:00:00 22 21.8 22.3 0 6756 15.61 14.72 16.54 100 15.5 14.7
2018-06-21 22:00:00 21.5 21.3 21.9 0 6748 14.33 14 14.63 100 14.2 14
2018-06-21 23:00:00 21 20.8 21.4 0 6728 13.62 13.41 13.89 100 13.5 13.4
2018-06-22 00:00:00 20.5 20.3 20.8 0 6718 13.31 13.15 13.53 100 13.2 13.1
2018-06-22 01:00:00 20 19.8 20.3 0 6698 13.03 12.85 13.38 100 12.9 12.8
2018-06-22 02:00:00 19.6 19.4 20 0 6698 12.66 12.38 12.95 100 12.6 12.3
2018-06-22 03:00:00 19.3 19 19.6 0 6698 13.29 12.66 13.88 100 13.2 12.6
2018-06-22 04:00:00 19 18.9 19.2 0.2 6698 14.6 14.01 14.87 100 14.5 14
2018-06-22 05:00:00 18.9 18.8 19.2 0 6698 14.57 14.26 15.17 100 14.5 14.2
2018-06-22 06:00:00 18.8 18.7 18.9 0 6776 15.43 14.53 16.25 100 15.3 14.5
2018-06-22 07:00:00 18.8 18.6 18.9 0 6894 16.6 16.28 16.98 100 16.5 16.2
2018-06-22 08:00:00 19.1 18.8 19.4 0 6972 18.04 16.41 20.34 100 18 16.4
2018-06-22 09:00:00 19.8 19.5 20 0 7098 18 17.25 19.17 100 17.9 17.2